sensor_id;sensor_type;location;lat;lon;timestamp;temperature;humidity
53876;DHT22;39789;53.216;5.624;2022-12-11T00:02:02;1.00;99.90
53876;DHT22;39789;53.216;5.624;2022-12-11T00:04:29;1.00;99.90
53876;DHT22;39789;53.216;5.624;2022-12-11T00:06:55;1.00;99.90
53876;DHT22;39789;53.216;5.624;2022-12-11T00:09:20;1.50;99.90
53876;DHT22;39789;53.216;5.624;2022-12-11T00:11:46;1.60;99.90
53876;DHT22;39789;53.216;5.624;2022-12-11T00:14:13;2.00;99.90
53876;DHT22;39789;53.216;5.624;2022-12-11T00:16:39;1.20;99.90
53876;DHT22;39789;53.216;5.624;2022-12-11T00:19:05;1.10;99.90
53876;DHT22;39789;53.216;5.624;2022-12-11T00:21:30;1.10;99.90
53876;DHT22;39789;53.216;5.624;2022-12-11T00:23:56;1.30;99.90
53876;DHT22;39789;53.216;5.624;2022-12-11T00:26:22;1.10;99.90
53876;DHT22;39789;53.216;5.624;2022-12-11T00:28:55;1.50;99.90
53876;DHT22;39789;53.216;5.624;2022-12-11T00:31:22;1.10;99.90
53876;DHT22;39789;53.216;5.624;2022-12-11T00:33:48;1.20;99.90
53876;DHT22;39789;53.216;5.624;2022-12-11T00:36:22;1.80;99.90
53876;DHT22;39789;53.216;5.624;2022-12-11T00:38:49;2.30;99.90
53876;DHT22;39789;53.216;5.624;2022-12-11T00:41:15;1.70;99.90
53876;DHT22;39789;53.216;5.624;2022-12-11T00:43:41;1.70;99.90
53876;DHT22;39789;53.216;5.624;2022-12-11T00:46:06;1.90;99.90
53876;DHT22;39789;53.216;5.624;2022-12-11T00:48:32;1.30;99.90
53876;DHT22;39789;53.216;5.624;2022-12-11T00:50:58;1.20;99.90
53876;DHT22;39789;53.216;5.624;2022-12-11T00:53:24;2.30;99.90
53876;DHT22;39789;53.216;5.624;2022-12-11T00:55:50;1.30;99.90
53876;DHT22;39789;53.216;5.624;2022-12-11T00:58:15;1.40;99.90
53876;DHT22;39789;53.216;5.624;2022-12-11T01:00:41;2.10;99.90
53876;DHT22;39789;53.216;5.624;2022-12-11T01:03:08;1.30;99.90
53876;DHT22;39789;53.216;5.624;2022-12-11T01:05:34;1.80;99.90
53876;DHT22;39789;53.216;5.624;2022-12-11T01:08:00;1.80;99.90
53876;DHT22;39789;53.216;5.624;2022-12-11T01:10:26;1.60;99.90
53876;DHT22;39789;53.216;5.624;2022-12-11T01:13:03;1.40;99.90
53876;DHT22;39789;53.216;5.624;2022-12-11T01:15:32;1.40;99.90
53876;DHT22;39789;53.216;5.624;2022-12-11T01:17:58;1.40;99.90
53876;DHT22;39789;53.216;5.624;2022-12-11T01:20:25;1.90;99.90
53876;DHT22;39789;53.216;5.624;2022-12-11T01:22:53;1.40;99.90
53876;DHT22;39789;53.216;5.624;2022-12-11T01:25:18;1.40;99.90
53876;DHT22;39789;53.216;5.624;2022-12-11T01:27:44;1.40;99.90
53876;DHT22;39789;53.216;5.624;2022-12-11T01:30:10;1.40;99.90
53876;DHT22;39789;53.216;5.624;2022-12-11T01:32:36;1.50;99.90
53876;DHT22;39789;53.216;5.624;2022-12-11T01:35:03;1.50;99.90
53876;DHT22;39789;53.216;5.624;2022-12-11T01:37:29;3.00;99.90
53876;DHT22;39789;53.216;5.624;2022-12-11T01:39:55;1.70;99.90
53876;DHT22;39789;53.216;5.624;2022-12-11T01:42:20;1.50;99.90
53876;DHT22;39789;53.216;5.624;2022-12-11T01:47:12;1.80;99.90
53876;DHT22;39789;53.216;5.624;2022-12-11T01:49:39;2.30;99.90
53876;DHT22;39789;53.216;5.624;2022-12-11T01:52:11;1.60;99.90
53876;DHT22;39789;53.216;5.624;2022-12-11T01:54:40;1.60;99.90
53876;DHT22;39789;53.216;5.624;2022-12-11T01:57:07;1.60;99.90
53876;DHT22;39789;53.216;5.624;2022-12-11T01:59:36;1.60;99.90
53876;DHT22;39789;53.216;5.624;2022-12-11T02:02:18;1.60;99.90
53876;DHT22;39789;53.216;5.624;2022-12-11T02:04:45;1.60;99.90
53876;DHT22;39789;53.216;5.624;2022-12-11T02:07:11;1.60;99.90
53876;DHT22;39789;53.216;5.624;2022-12-11T02:09:38;1.70;99.90
53876;DHT22;39789;53.216;5.624;2022-12-11T02:12:30;1.70;99.90
53876;DHT22;39789;53.216;5.624;2022-12-11T02:20:26;1.70;99.90
53876;DHT22;39789;53.216;5.624;2022-12-11T02:28:38;1.70;99.90
53876;DHT22;39789;53.216;5.624;2022-12-11T02:31:13;1.70;99.90
53876;DHT22;39789;53.216;5.624;2022-12-11T02:33:45;2.00;99.90
53876;DHT22;39789;53.216;5.624;2022-12-11T02:36:15;2.20;99.90
53876;DHT22;39789;53.216;5.624;2022-12-11T02:38:43;1.70;99.90
53876;DHT22;39789;53.216;5.624;2022-12-11T02:41:16;1.70;99.90
53876;DHT22;39789;53.216;5.624;2022-12-11T02:43:43;1.70;99.90
53876;DHT22;39789;53.216;5.624;2022-12-11T02:46:10;1.90;99.90
53876;DHT22;39789;53.216;5.624;2022-12-11T02:48:38;1.70;99.90
53876;DHT22;39789;53.216;5.624;2022-12-11T02:51:05;1.70;99.90
53876;DHT22;39789;53.216;5.624;2022-12-11T02:53:36;1.70;99.90
53876;DHT22;39789;53.216;5.624;2022-12-11T02:56:27;2.20;99.90
53876;DHT22;39789;53.216;5.624;2022-12-11T02:59:03;1.70;99.90
53876;DHT22;39789;53.216;5.624;2022-12-11T03:01:31;1.80;99.90
53876;DHT22;39789;53.216;5.624;2022-12-11T03:03:57;2.30;99.90
53876;DHT22;39789;53.216;5.624;2022-12-11T03:06:35;1.70;99.90
53876;DHT22;39789;53.216;5.624;2022-12-11T03:09:02;1.80;99.90
53876;DHT22;39789;53.216;5.624;2022-12-11T03:11:28;1.90;99.90
53876;DHT22;39789;53.216;5.624;2022-12-11T03:13:54;1.70;99.90
53876;DHT22;39789;53.216;5.624;2022-12-11T03:16:34;1.80;99.90
53876;DHT22;39789;53.216;5.624;2022-12-11T03:22:11;1.80;99.90
53876;DHT22;39789;53.216;5.624;2022-12-11T03:27:29;1.80;99.90
53876;DHT22;39789;53.216;5.624;2022-12-11T03:30:10;1.80;99.90
53876;DHT22;39789;53.216;5.624;2022-12-11T03:35:33;1.80;99.90
53876;DHT22;39789;53.216;5.624;2022-12-11T03:38:07;1.80;99.90
53876;DHT22;39789;53.216;5.624;2022-12-11T03:40:35;1.80;99.90
53876;DHT22;39789;53.216;5.624;2022-12-11T03:43:03;1.80;99.90
53876;DHT22;39789;53.216;5.624;2022-12-11T03:45:29;1.80;99.90
53876;DHT22;39789;53.216;5.624;2022-12-11T03:47:56;1.80;99.90
53876;DHT22;39789;53.216;5.624;2022-12-11T03:50:24;1.80;99.90
53876;DHT22;39789;53.216;5.624;2022-12-11T03:52:52;1.80;99.90
53876;DHT22;39789;53.216;5.624;2022-12-11T03:55:20;1.80;99.90
53876;DHT22;39789;53.216;5.624;2022-12-11T03:57:47;1.80;99.90
53876;DHT22;39789;53.216;5.624;2022-12-11T04:00:15;1.80;99.90
53876;DHT22;39789;53.216;5.624;2022-12-11T04:02:42;1.80;99.90
53876;DHT22;39789;53.216;5.624;2022-12-11T04:05:08;1.80;99.90
53876;DHT22;39789;53.216;5.624;2022-12-11T04:07:34;1.90;99.90
53876;DHT22;39789;53.216;5.624;2022-12-11T04:10:00;1.80;99.90
53876;DHT22;39789;53.216;5.624;2022-12-11T04:12:26;1.80;99.90
53876;DHT22;39789;53.216;5.624;2022-12-11T04:14:51;1.80;99.90
53876;DHT22;39789;53.216;5.624;2022-12-11T04:17:30;1.80;99.90
53876;DHT22;39789;53.216;5.624;2022-12-11T04:20:14;1.80;99.90
53876;DHT22;39789;53.216;5.624;2022-12-11T04:22:59;1.80;99.90
53876;DHT22;39789;53.216;5.624;2022-12-11T04:25:43;2.10;99.90
53876;DHT22;39789;53.216;5.624;2022-12-11T04:28:09;2.10;99.90
53876;DHT22;39789;53.216;5.624;2022-12-11T04:30:34;1.70;99.90
53876;DHT22;39789;53.216;5.624;2022-12-11T04:33:00;1.70;99.90
53876;DHT22;39789;53.216;5.624;2022-12-11T04:35:26;1.70;99.90
53876;DHT22;39789;53.216;5.624;2022-12-11T04:37:52;1.60;99.90
53876;DHT22;39789;53.216;5.624;2022-12-11T04:40:18;1.60;99.90
53876;DHT22;39789;53.216;5.624;2022-12-11T04:42:44;1.60;99.90
53876;DHT22;39789;53.216;5.624;2022-12-11T04:45:11;1.60;99.90
53876;DHT22;39789;53.216;5.624;2022-12-11T04:47:39;1.60;99.90
53876;DHT22;39789;53.216;5.624;2022-12-11T04:50:07;1.60;99.90
53876;DHT22;39789;53.216;5.624;2022-12-11T04:52:33;1.60;99.90
53876;DHT22;39789;53.216;5.624;2022-12-11T04:54:59;2.10;99.90
53876;DHT22;39789;53.216;5.624;2022-12-11T04:57:24;1.60;99.90
53876;DHT22;39789;53.216;5.624;2022-12-11T05:03:31;1.70;99.90
53876;DHT22;39789;53.216;5.624;2022-12-11T05:05:56;1.60;99.90
53876;DHT22;39789;53.216;5.624;2022-12-11T05:08:22;1.70;99.90
53876;DHT22;39789;53.216;5.624;2022-12-11T05:10:55;1.70;99.90
53876;DHT22;39789;53.216;5.624;2022-12-11T05:13:21;1.60;99.90
53876;DHT22;39789;53.216;5.624;2022-12-11T05:15:46;1.70;99.90
53876;DHT22;39789;53.216;5.624;2022-12-11T05:18:12;1.70;99.90
53876;DHT22;39789;53.216;5.624;2022-12-11T05:20:37;1.70;99.90
53876;DHT22;39789;53.216;5.624;2022-12-11T05:23:03;1.70;99.90
53876;DHT22;39789;53.216;5.624;2022-12-11T05:25:28;1.70;99.90
53876;DHT22;39789;53.216;5.624;2022-12-11T05:27:54;1.70;99.90
53876;DHT22;39789;53.216;5.624;2022-12-11T05:30:19;1.70;99.90
53876;DHT22;39789;53.216;5.624;2022-12-11T05:32:45;1.70;99.90
53876;DHT22;39789;53.216;5.624;2022-12-11T05:35:11;1.70;99.90
53876;DHT22;39789;53.216;5.624;2022-12-11T05:37:36;1.70;99.90
53876;DHT22;39789;53.216;5.624;2022-12-11T05:40:02;1.70;99.90
53876;DHT22;39789;53.216;5.624;2022-12-11T05:42:31;1.70;99.90
53876;DHT22;39789;53.216;5.624;2022-12-11T05:44:56;1.70;99.90
53876;DHT22;39789;53.216;5.624;2022-12-11T05:47:22;1.70;99.90
53876;DHT22;39789;53.216;5.624;2022-12-11T05:49:47;1.70;99.90
53876;DHT22;39789;53.216;5.624;2022-12-11T05:52:13;1.70;99.90
53876;DHT22;39789;53.216;5.624;2022-12-11T05:54:40;1.70;99.90
53876;DHT22;39789;53.216;5.624;2022-12-11T05:57:06;1.70;99.90
53876;DHT22;39789;53.216;5.624;2022-12-11T05:59:32;1.70;99.90
53876;DHT22;39789;53.216;5.624;2022-12-11T06:01:57;1.60;99.90
53876;DHT22;39789;53.216;5.624;2022-12-11T06:04:23;1.60;99.90
53876;DHT22;39789;53.216;5.624;2022-12-11T06:06:48;1.70;99.90
53876;DHT22;39789;53.216;5.624;2022-12-11T06:09:15;1.70;99.90
53876;DHT22;39789;53.216;5.624;2022-12-11T06:11:41;1.70;99.90
53876;DHT22;39789;53.216;5.624;2022-12-11T06:14:08;1.70;99.90
53876;DHT22;39789;53.216;5.624;2022-12-11T06:16:34;1.70;99.90
53876;DHT22;39789;53.216;5.624;2022-12-11T06:18:59;1.70;99.90
53876;DHT22;39789;53.216;5.624;2022-12-11T06:21:31;1.80;99.90
53876;DHT22;39789;53.216;5.624;2022-12-11T06:23:59;1.80;99.90
53876;DHT22;39789;53.216;5.624;2022-12-11T06:26:26;1.70;99.90
53876;DHT22;39789;53.216;5.624;2022-12-11T06:28:52;1.70;99.90
53876;DHT22;39789;53.216;5.624;2022-12-11T06:31:18;1.70;99.90
53876;DHT22;39789;53.216;5.624;2022-12-11T06:33:44;1.70;99.90
53876;DHT22;39789;53.216;5.624;2022-12-11T06:36:13;1.80;99.90
53876;DHT22;39789;53.216;5.624;2022-12-11T06:38:39;1.80;99.90
53876;DHT22;39789;53.216;5.624;2022-12-11T06:41:06;1.70;99.90
53876;DHT22;39789;53.216;5.624;2022-12-11T06:43:34;1.70;99.90
53876;DHT22;39789;53.216;5.624;2022-12-11T06:46:08;1.80;99.90
53876;DHT22;39789;53.216;5.624;2022-12-11T06:48:34;1.80;99.90
53876;DHT22;39789;53.216;5.624;2022-12-11T06:51:04;1.70;99.90
53876;DHT22;39789;53.216;5.624;2022-12-11T06:53:31;1.80;99.90
53876;DHT22;39789;53.216;5.624;2022-12-11T06:56:02;1.70;99.90
53876;DHT22;39789;53.216;5.624;2022-12-11T06:58:27;1.80;99.90
53876;DHT22;39789;53.216;5.624;2022-12-11T07:00:53;1.80;99.90
53876;DHT22;39789;53.216;5.624;2022-12-11T07:03:18;1.80;99.90
53876;DHT22;39789;53.216;5.624;2022-12-11T07:05:44;1.80;99.90
53876;DHT22;39789;53.216;5.624;2022-12-11T07:08:10;1.80;99.90
53876;DHT22;39789;53.216;5.624;2022-12-11T07:10:35;1.80;99.90
53876;DHT22;39789;53.216;5.624;2022-12-11T07:13:01;1.80;99.90
53876;DHT22;39789;53.216;5.624;2022-12-11T07:15:26;1.80;99.90
53876;DHT22;39789;53.216;5.624;2022-12-11T07:17:52;1.70;99.90
53876;DHT22;39789;53.216;5.624;2022-12-11T07:20:17;1.70;99.90
53876;DHT22;39789;53.216;5.624;2022-12-11T07:22:43;1.80;99.90
53876;DHT22;39789;53.216;5.624;2022-12-11T07:25:09;1.70;99.90
53876;DHT22;39789;53.216;5.624;2022-12-11T07:27:34;1.70;99.90
53876;DHT22;39789;53.216;5.624;2022-12-11T07:30:00;1.70;99.90
53876;DHT22;39789;53.216;5.624;2022-12-11T07:32:25;1.70;99.90
53876;DHT22;39789;53.216;5.624;2022-12-11T07:34:51;1.70;99.90
53876;DHT22;39789;53.216;5.624;2022-12-11T07:37:16;1.70;99.90
53876;DHT22;39789;53.216;5.624;2022-12-11T07:39:42;1.70;99.90
53876;DHT22;39789;53.216;5.624;2022-12-11T07:42:07;1.70;99.90
53876;DHT22;39789;53.216;5.624;2022-12-11T07:44:33;1.70;99.90
53876;DHT22;39789;53.216;5.624;2022-12-11T07:46:59;1.70;99.90
53876;DHT22;39789;53.216;5.624;2022-12-11T07:49:24;1.70;99.90
53876;DHT22;39789;53.216;5.624;2022-12-11T07:51:50;1.80;99.90
53876;DHT22;39789;53.216;5.624;2022-12-11T07:54:15;1.70;99.90
53876;DHT22;39789;53.216;5.624;2022-12-11T07:56:42;1.70;99.90
53876;DHT22;39789;53.216;5.624;2022-12-11T07:59:09;1.70;99.90
53876;DHT22;39789;53.216;5.624;2022-12-11T08:01:35;1.70;99.90
53876;DHT22;39789;53.216;5.624;2022-12-11T08:04:02;1.70;99.90
53876;DHT22;39789;53.216;5.624;2022-12-11T08:06:31;1.80;99.90
53876;DHT22;39789;53.216;5.624;2022-12-11T08:08:58;1.80;99.90
53876;DHT22;39789;53.216;5.624;2022-12-11T08:11:24;1.80;99.90
53876;DHT22;39789;53.216;5.624;2022-12-11T08:13:50;1.80;99.90
53876;DHT22;39789;53.216;5.624;2022-12-11T08:16:16;1.80;99.90
53876;DHT22;39789;53.216;5.624;2022-12-11T08:18:44;1.80;99.90
53876;DHT22;39789;53.216;5.624;2022-12-11T08:21:16;1.80;99.90
53876;DHT22;39789;53.216;5.624;2022-12-11T08:23:42;1.80;99.90
53876;DHT22;39789;53.216;5.624;2022-12-11T08:26:10;1.80;99.90
53876;DHT22;39789;53.216;5.624;2022-12-11T08:28:37;1.90;99.90
53876;DHT22;39789;53.216;5.624;2022-12-11T08:31:04;1.80;99.90
53876;DHT22;39789;53.216;5.624;2022-12-11T08:33:30;1.90;99.90
53876;DHT22;39789;53.216;5.624;2022-12-11T08:35:56;1.80;99.90
53876;DHT22;39789;53.216;5.624;2022-12-11T08:38:22;1.90;99.90
53876;DHT22;39789;53.216;5.624;2022-12-11T08:40:47;1.90;99.90
53876;DHT22;39789;53.216;5.624;2022-12-11T08:43:13;1.90;99.90
53876;DHT22;39789;53.216;5.624;2022-12-11T08:45:38;1.90;99.90
53876;DHT22;39789;53.216;5.624;2022-12-11T08:48:04;2.00;99.90
53876;DHT22;39789;53.216;5.624;2022-12-11T08:50:30;1.90;99.90
53876;DHT22;39789;53.216;5.624;2022-12-11T08:52:56;1.90;99.90
53876;DHT22;39789;53.216;5.624;2022-12-11T08:55:21;2.00;99.90
53876;DHT22;39789;53.216;5.624;2022-12-11T08:57:47;2.00;99.90
53876;DHT22;39789;53.216;5.624;2022-12-11T09:00:13;1.90;99.90
53876;DHT22;39789;53.216;5.624;2022-12-11T09:02:40;2.00;99.90
53876;DHT22;39789;53.216;5.624;2022-12-11T09:05:06;2.00;99.90
53876;DHT22;39789;53.216;5.624;2022-12-11T09:07:34;2.00;99.90
53876;DHT22;39789;53.216;5.624;2022-12-11T09:10:00;2.00;99.90
53876;DHT22;39789;53.216;5.624;2022-12-11T09:12:26;2.00;99.90
53876;DHT22;39789;53.216;5.624;2022-12-11T09:14:53;2.10;99.90
53876;DHT22;39789;53.216;5.624;2022-12-11T09:17:18;2.10;99.90
53876;DHT22;39789;53.216;5.624;2022-12-11T09:19:44;2.00;99.90
53876;DHT22;39789;53.216;5.624;2022-12-11T09:22:09;2.10;99.90
53876;DHT22;39789;53.216;5.624;2022-12-11T09:24:37;2.10;99.90
53876;DHT22;39789;53.216;5.624;2022-12-11T09:27:03;2.10;99.90
53876;DHT22;39789;53.216;5.624;2022-12-11T09:29:29;2.10;99.90
53876;DHT22;39789;53.216;5.624;2022-12-11T09:31:55;2.20;99.90
53876;DHT22;39789;53.216;5.624;2022-12-11T09:34:21;2.20;99.90
53876;DHT22;39789;53.216;5.624;2022-12-11T09:36:46;2.30;99.90
53876;DHT22;39789;53.216;5.624;2022-12-11T09:39:13;2.30;99.90
53876;DHT22;39789;53.216;5.624;2022-12-11T09:45:13;2.30;99.90
53876;DHT22;39789;53.216;5.624;2022-12-11T09:47:35;2.40;99.90
53876;DHT22;39789;53.216;5.624;2022-12-11T09:55:46;2.40;99.90
53876;DHT22;39789;53.216;5.624;2022-12-11T09:58:38;2.50;99.90
53876;DHT22;39789;53.216;5.624;2022-12-11T10:01:21;2.50;99.90
53876;DHT22;39789;53.216;5.624;2022-12-11T10:06:57;2.50;99.90
53876;DHT22;39789;53.216;5.624;2022-12-11T10:12:25;2.50;99.90
53876;DHT22;39789;53.216;5.624;2022-12-11T10:15:10;2.60;99.90
53876;DHT22;39789;53.216;5.624;2022-12-11T10:17:38;2.60;99.90
53876;DHT22;39789;53.216;5.624;2022-12-11T10:20:30;2.60;99.90
53876;DHT22;39789;53.216;5.624;2022-12-11T10:23:00;2.60;99.90
53876;DHT22;39789;53.216;5.624;2022-12-11T10:25:31;2.60;99.90
53876;DHT22;39789;53.216;5.624;2022-12-11T10:28:11;2.60;99.90
53876;DHT22;39789;53.216;5.624;2022-12-11T10:30:43;2.60;99.90
53876;DHT22;39789;53.216;5.624;2022-12-11T10:33:21;2.60;99.90
53876;DHT22;39789;53.216;5.624;2022-12-11T10:35:51;2.70;99.90
53876;DHT22;39789;53.216;5.624;2022-12-11T10:38:26;2.70;99.90
53876;DHT22;39789;53.216;5.624;2022-12-11T10:41:05;2.70;99.90
53876;DHT22;39789;53.216;5.624;2022-12-11T10:43:35;2.70;99.90
53876;DHT22;39789;53.216;5.624;2022-12-11T10:46:01;2.70;99.90
53876;DHT22;39789;53.216;5.624;2022-12-11T10:48:26;2.70;99.90
53876;DHT22;39789;53.216;5.624;2022-12-11T10:51:04;2.70;99.90
53876;DHT22;39789;53.216;5.624;2022-12-11T10:53:30;2.70;99.90
53876;DHT22;39789;53.216;5.624;2022-12-11T10:55:56;2.70;99.90
53876;DHT22;39789;53.216;5.624;2022-12-11T10:58:28;2.70;99.90
53876;DHT22;39789;53.216;5.624;2022-12-11T11:01:07;2.70;99.90
53876;DHT22;39789;53.216;5.624;2022-12-11T11:06:39;2.70;99.90
53876;DHT22;39789;53.216;5.624;2022-12-11T11:09:34;2.70;99.90
53876;DHT22;39789;53.216;5.624;2022-12-11T11:12:00;2.70;99.90
53876;DHT22;39789;53.216;5.624;2022-12-11T11:14:26;2.70;99.90
53876;DHT22;39789;53.216;5.624;2022-12-11T11:16:55;2.80;99.90
53876;DHT22;39789;53.216;5.624;2022-12-11T11:19:30;2.80;99.90
53876;DHT22;39789;53.216;5.624;2022-12-11T11:22:12;2.80;99.90
53876;DHT22;39789;53.216;5.624;2022-12-11T11:24:51;2.90;99.90
53876;DHT22;39789;53.216;5.624;2022-12-11T11:27:34;2.90;99.90
53876;DHT22;39789;53.216;5.624;2022-12-11T11:30:05;2.90;99.90
53876;DHT22;39789;53.216;5.624;2022-12-11T11:32:36;2.90;99.90
53876;DHT22;39789;53.216;5.624;2022-12-11T11:37:39;2.90;99.90
53876;DHT22;39789;53.216;5.624;2022-12-11T11:40:43;2.90;99.90
53876;DHT22;39789;53.216;5.624;2022-12-11T11:43:39;3.00;99.90
53876;DHT22;39789;53.216;5.624;2022-12-11T11:46:34;3.00;99.90
53876;DHT22;39789;53.216;5.624;2022-12-11T11:49:23;3.10;99.90
53876;DHT22;39789;53.216;5.624;2022-12-11T11:51:54;3.10;99.90
53876;DHT22;39789;53.216;5.624;2022-12-11T11:54:36;3.10;99.90
53876;DHT22;39789;53.216;5.624;2022-12-11T11:57:16;3.10;99.90
53876;DHT22;39789;53.216;5.624;2022-12-11T11:59:46;3.10;99.90
53876;DHT22;39789;53.216;5.624;2022-12-11T12:02:15;3.20;99.90
53876;DHT22;39789;53.216;5.624;2022-12-11T12:04:43;3.00;99.90
53876;DHT22;39789;53.216;5.624;2022-12-11T12:09:51;3.10;99.90
53876;DHT22;39789;53.216;5.624;2022-12-11T12:12:29;3.20;99.90
53876;DHT22;39789;53.216;5.624;2022-12-11T12:15:28;3.20;99.90
53876;DHT22;39789;53.216;5.624;2022-12-11T12:18:01;3.20;99.90
53876;DHT22;39789;53.216;5.624;2022-12-11T12:23:40;3.10;99.90
53876;DHT22;39789;53.216;5.624;2022-12-11T12:26:37;3.20;99.90
53876;DHT22;39789;53.216;5.624;2022-12-11T12:29:43;3.20;99.90
53876;DHT22;39789;53.216;5.624;2022-12-11T12:38:00;3.10;99.90
53876;DHT22;39789;53.216;5.624;2022-12-11T12:40:47;3.00;99.90
53876;DHT22;39789;53.216;5.624;2022-12-11T12:48:34;2.80;99.90
53876;DHT22;39789;53.216;5.624;2022-12-11T12:51:00;2.80;99.90
53876;DHT22;39789;53.216;5.624;2022-12-11T12:53:30;2.70;99.90
53876;DHT22;39789;53.216;5.624;2022-12-11T12:55:58;2.70;99.90
53876;DHT22;39789;53.216;5.624;2022-12-11T12:58:38;2.70;99.90
53876;DHT22;39789;53.216;5.624;2022-12-11T13:01:13;2.70;99.90
53876;DHT22;39789;53.216;5.624;2022-12-11T13:03:58;2.60;99.90
53876;DHT22;39789;53.216;5.624;2022-12-11T13:06:36;2.60;99.90
53876;DHT22;39789;53.216;5.624;2022-12-11T13:09:28;2.60;99.90
53876;DHT22;39789;53.216;5.624;2022-12-11T13:11:55;2.50;99.90
53876;DHT22;39789;53.216;5.624;2022-12-11T13:14:27;2.50;99.90
53876;DHT22;39789;53.216;5.624;2022-12-11T13:19:45;2.60;99.90
53876;DHT22;39789;53.216;5.624;2022-12-11T13:27:45;2.70;99.90
53876;DHT22;39789;53.216;5.624;2022-12-11T13:32:54;2.60;99.90
53876;DHT22;39789;53.216;5.624;2022-12-11T13:35:23;2.70;99.90
53876;DHT22;39789;53.216;5.624;2022-12-11T13:37:49;2.70;99.90
53876;DHT22;39789;53.216;5.624;2022-12-11T13:40:21;2.70;99.90
53876;DHT22;39789;53.216;5.624;2022-12-11T13:42:51;2.60;99.90
53876;DHT22;39789;53.216;5.624;2022-12-11T13:45:26;2.60;99.90
53876;DHT22;39789;53.216;5.624;2022-12-11T13:47:56;2.60;99.90
53876;DHT22;39789;53.216;5.624;2022-12-11T13:50:31;2.60;99.90
53876;DHT22;39789;53.216;5.624;2022-12-11T13:52:59;2.50;99.90
53876;DHT22;39789;53.216;5.624;2022-12-11T13:55:31;2.50;99.90
53876;DHT22;39789;53.216;5.624;2022-12-11T13:57:57;2.40;99.90
53876;DHT22;39789;53.216;5.624;2022-12-11T14:00:25;2.40;99.90
53876;DHT22;39789;53.216;5.624;2022-12-11T14:06:33;2.30;99.90
53876;DHT22;39789;53.216;5.624;2022-12-11T14:09:00;2.10;99.90
53876;DHT22;39789;53.216;5.624;2022-12-11T14:11:30;2.00;99.90
53876;DHT22;39789;53.216;5.624;2022-12-11T14:13:59;2.10;99.90
53876;DHT22;39789;53.216;5.624;2022-12-11T14:16:26;2.00;99.90
53876;DHT22;39789;53.216;5.624;2022-12-11T14:19:06;2.00;99.90
53876;DHT22;39789;53.216;5.624;2022-12-11T14:21:35;2.00;99.90
53876;DHT22;39789;53.216;5.624;2022-12-11T14:24:02;2.00;99.90
53876;DHT22;39789;53.216;5.624;2022-12-11T14:26:32;2.00;99.90
53876;DHT22;39789;53.216;5.624;2022-12-11T14:28:58;2.00;99.90
53876;DHT22;39789;53.216;5.624;2022-12-11T14:31:32;2.00;99.90
53876;DHT22;39789;53.216;5.624;2022-12-11T14:34:06;2.00;99.90
53876;DHT22;39789;53.216;5.624;2022-12-11T14:36:34;2.00;99.90
53876;DHT22;39789;53.216;5.624;2022-12-11T14:39:10;1.90;99.90
53876;DHT22;39789;53.216;5.624;2022-12-11T14:41:41;2.00;99.90
53876;DHT22;39789;53.216;5.624;2022-12-11T14:44:14;1.90;99.90
53876;DHT22;39789;53.216;5.624;2022-12-11T14:47:01;2.00;99.90
53876;DHT22;39789;53.216;5.624;2022-12-11T14:49:37;2.00;99.90
53876;DHT22;39789;53.216;5.624;2022-12-11T14:52:05;1.90;99.90
53876;DHT22;39789;53.216;5.624;2022-12-11T14:54:40;2.00;99.90
53876;DHT22;39789;53.216;5.624;2022-12-11T14:57:20;2.00;99.90
53876;DHT22;39789;53.216;5.624;2022-12-11T14:59:48;1.90;99.90
53876;DHT22;39789;53.216;5.624;2022-12-11T15:02:25;1.90;99.90
53876;DHT22;39789;53.216;5.624;2022-12-11T15:05:14;1.90;99.90
53876;DHT22;39789;53.216;5.624;2022-12-11T15:07:52;1.80;99.90
53876;DHT22;39789;53.216;5.624;2022-12-11T15:10:37;1.80;99.90
53876;DHT22;39789;53.216;5.624;2022-12-11T15:13:06;1.80;99.90
53876;DHT22;39789;53.216;5.624;2022-12-11T15:15:37;1.80;99.90
53876;DHT22;39789;53.216;5.624;2022-12-11T15:18:24;1.80;99.90
53876;DHT22;39789;53.216;5.624;2022-12-11T15:20:56;1.80;99.90
53876;DHT22;39789;53.216;5.624;2022-12-11T15:23:22;1.70;99.90
53876;DHT22;39789;53.216;5.624;2022-12-11T15:25:59;1.70;99.90
53876;DHT22;39789;53.216;5.624;2022-12-11T15:28:28;1.70;99.90
53876;DHT22;39789;53.216;5.624;2022-12-11T15:30:57;1.70;99.90
53876;DHT22;39789;53.216;5.624;2022-12-11T15:33:23;1.60;99.90
53876;DHT22;39789;53.216;5.624;2022-12-11T15:36:31;1.70;99.90
53876;DHT22;39789;53.216;5.624;2022-12-11T15:38:57;1.60;99.90
53876;DHT22;39789;53.216;5.624;2022-12-11T15:41:24;1.60;99.90
53876;DHT22;39789;53.216;5.624;2022-12-11T15:43:51;1.60;99.90
53876;DHT22;39789;53.216;5.624;2022-12-11T15:46:17;1.50;99.90
53876;DHT22;39789;53.216;5.624;2022-12-11T15:48:43;1.60;99.90
53876;DHT22;39789;53.216;5.624;2022-12-11T15:51:09;1.50;99.90
53876;DHT22;39789;53.216;5.624;2022-12-11T15:53:35;1.50;99.90
53876;DHT22;39789;53.216;5.624;2022-12-11T15:56:01;1.50;99.90
53876;DHT22;39789;53.216;5.624;2022-12-11T15:58:27;1.50;99.90
53876;DHT22;39789;53.216;5.624;2022-12-11T16:00:53;1.40;99.90
53876;DHT22;39789;53.216;5.624;2022-12-11T16:03:21;1.40;99.90
53876;DHT22;39789;53.216;5.624;2022-12-11T16:05:48;1.40;99.90
53876;DHT22;39789;53.216;5.624;2022-12-11T16:08:18;1.50;99.90
53876;DHT22;39789;53.216;5.624;2022-12-11T16:10:45;1.40;99.90
53876;DHT22;39789;53.216;5.624;2022-12-11T16:13:11;1.40;99.90
53876;DHT22;39789;53.216;5.624;2022-12-11T16:15:39;1.40;99.90
53876;DHT22;39789;53.216;5.624;2022-12-11T16:18:08;1.40;99.90
53876;DHT22;39789;53.216;5.624;2022-12-11T16:20:35;1.40;99.90
53876;DHT22;39789;53.216;5.624;2022-12-11T16:23:01;1.40;99.90
53876;DHT22;39789;53.216;5.624;2022-12-11T16:25:27;1.40;99.90
53876;DHT22;39789;53.216;5.624;2022-12-11T16:27:57;1.40;99.90
53876;DHT22;39789;53.216;5.624;2022-12-11T16:30:23;1.40;99.90
53876;DHT22;39789;53.216;5.624;2022-12-11T16:32:49;1.40;99.90
53876;DHT22;39789;53.216;5.624;2022-12-11T16:35:15;1.30;99.90
53876;DHT22;39789;53.216;5.624;2022-12-11T16:37:41;1.30;99.90
53876;DHT22;39789;53.216;5.624;2022-12-11T16:40:07;1.20;99.90
53876;DHT22;39789;53.216;5.624;2022-12-11T16:42:33;1.30;99.90
53876;DHT22;39789;53.216;5.624;2022-12-11T16:45:04;1.30;99.90
53876;DHT22;39789;53.216;5.624;2022-12-11T16:47:30;1.20;99.90
53876;DHT22;39789;53.216;5.624;2022-12-11T16:49:59;1.20;99.90
53876;DHT22;39789;53.216;5.624;2022-12-11T16:52:25;1.20;99.90
53876;DHT22;39789;53.216;5.624;2022-12-11T16:54:51;1.20;99.90
53876;DHT22;39789;53.216;5.624;2022-12-11T16:57:16;1.20;99.90
53876;DHT22;39789;53.216;5.624;2022-12-11T16:59:42;1.20;99.90
53876;DHT22;39789;53.216;5.624;2022-12-11T17:02:10;1.20;99.90
53876;DHT22;39789;53.216;5.624;2022-12-11T17:04:37;1.20;99.90
53876;DHT22;39789;53.216;5.624;2022-12-11T17:07:04;1.20;99.90
53876;DHT22;39789;53.216;5.624;2022-12-11T17:09:30;1.20;99.90
53876;DHT22;39789;53.216;5.624;2022-12-11T17:11:55;1.10;99.90
53876;DHT22;39789;53.216;5.624;2022-12-11T17:14:21;1.10;99.90
53876;DHT22;39789;53.216;5.624;2022-12-11T17:16:47;1.10;99.90
53876;DHT22;39789;53.216;5.624;2022-12-11T17:19:13;1.10;99.90